Terminal Aerodrome Forecast
Issued by NWS Twin Cities, MN

Home | Current Version | Previous Version | Graphics & Text | Print | Product List | Glossary On
Versions: 1 2 3 4 5 6 7 8 9 10 11 12 13 14 15 16 17 18 19 20
000
FTUS43 KMPX 280740 AAB
TAFEAU
TAF AMD
KEAU 280740Z 2808/2906 00000KT 2SM BR BKN002
      TEMPO 2808/2812 1/2SM FZFG VV001
     FM281300 00000KT 3/4SM BR BKN003
     FM281400 04003KT 3SM BR SCT005
     FM281500 07006KT P6SM FEW200=

USA.gov is the U.S. government's official web portal to all federal, state and local government web resources and services.